createdAt,value
2023-03-21T00:00:42.296Z,83.60
2023-03-21T00:03:09.184Z,82.80
2023-03-21T00:05:42.547Z,82.60
2023-03-21T00:08:09.672Z,83.04
2023-03-21T00:10:43.471Z,82.51
2023-03-21T00:13:13.201Z,82.37
2023-03-21T00:16:01.847Z,82.30
2023-03-21T00:18:31.749Z,82.06
2023-03-21T00:21:37.558Z,81.98
2023-03-21T00:23:52.308Z,82.12
2023-03-21T00:26:18.835Z,81.83
2023-03-21T00:28:45.778Z,81.19
2023-03-21T00:31:12.316Z,82.94
2023-03-21T00:33:39.526Z,83.87
2023-03-21T00:36:07.590Z,82.99
2023-03-21T00:38:35.626Z,83.93
2023-03-21T00:41:17.676Z,85.22
2023-03-21T00:43:47.900Z,85.02
2023-03-21T00:46:14.541Z,85.65
2023-03-21T00:48:41.471Z,85.99
2023-03-21T00:51:15.615Z,86.20
2023-03-21T00:53:42.858Z,86.42
2023-03-21T00:56:09.795Z,86.45
2023-03-21T00:58:36.462Z,86.11
2023-03-21T01:01:04.442Z,85.67
2023-03-21T01:03:31.092Z,85.47
2023-03-21T01:06:06.998Z,85.10
2023-03-21T01:08:54.531Z,84.83
2023-03-21T01:11:26.733Z,85.73
2023-03-21T01:14:04.239Z,85.11
2023-03-21T01:16:38.326Z,84.93
2023-03-21T01:19:09.280Z,85.23
2023-03-21T01:21:41.421Z,86.02
2023-03-21T01:24:08.255Z,86.58
2023-03-21T01:26:34.834Z,86.75
2023-03-21T01:29:01.367Z,86.19
2023-03-21T01:31:28.022Z,85.10
2023-03-21T01:33:54.606Z,86.08
2023-03-21T01:36:24.899Z,85.83
2023-03-21T01:38:52.830Z,86.66
2023-03-21T01:41:36.771Z,86.74
2023-03-21T01:44:14.952Z,86.76
2023-03-21T01:46:57.017Z,87.33
2023-03-21T01:49:34.578Z,87.42
2023-03-21T01:52:13.173Z,87.12
2023-03-21T01:54:43.562Z,87.43
2023-03-21T01:57:16.500Z,88.71
2023-03-21T01:59:46.022Z,88.59
2023-03-21T02:02:20.848Z,88.80
2023-03-21T02:04:51.031Z,88.85
2023-03-21T02:07:25.607Z,89.17
2023-03-21T02:09:53.315Z,88.13
2023-03-21T02:12:20.322Z,87.64
2023-03-21T02:14:49.018Z,86.52
2023-03-21T02:17:37.312Z,85.34
2023-03-21T02:20:35.108Z,84.41
2023-03-21T02:23:24.821Z,83.49
2023-03-21T02:26:03.497Z,78.96
2023-03-21T02:28:36.734Z,77.67
2023-03-21T02:31:28.366Z,77.71
2023-03-21T02:34:39.353Z,77.18
2023-03-21T02:37:15.294Z,77.28
2023-03-21T02:39:55.058Z,76.54
2023-03-21T02:42:24.515Z,76.59
2023-03-21T02:44:54.068Z,75.86
2023-03-21T02:47:34.762Z,76.75
2023-03-21T02:50:05.545Z,76.65
2023-03-21T02:52:39.573Z,76.03
2023-03-21T02:55:15.484Z,76.84
2023-03-21T02:57:44.108Z,77.13
2023-03-21T03:00:17.829Z,77.08
2023-03-21T03:02:45.224Z,77.48
2023-03-21T03:05:22.146Z,78.70
2023-03-21T03:08:01.436Z,79.22
2023-03-21T03:10:33.919Z,79.79
2023-03-21T03:13:58.173Z,80.40
2023-03-21T03:16:25.871Z,80.66
2023-03-21T03:18:58.649Z,80.07
2023-03-21T03:21:40.234Z,80.53
2023-03-21T03:24:34.121Z,80.14
2023-03-21T03:27:05.289Z,80.41
2023-03-21T03:29:34.171Z,80.50
2023-03-21T03:32:13.922Z,80.72
2023-03-21T03:34:56.167Z,81.08
2023-03-21T03:37:29.627Z,80.62
2023-03-21T03:40:15.402Z,81.46
2023-03-21T03:42:49.483Z,82.11
2023-03-21T03:45:16.734Z,81.82
2023-03-21T03:47:57.078Z,82.23
2023-03-21T03:50:34.610Z,83.81
2023-03-21T03:53:25.376Z,84.33
2023-03-21T03:55:54.795Z,84.65
2023-03-21T03:58:26.026Z,85.11
2023-03-21T04:00:57.982Z,85.70
2023-03-21T04:03:24.874Z,85.91
2023-03-21T04:05:51.764Z,85.45
2023-03-21T04:08:18.348Z,83.90
2023-03-21T04:10:44.951Z,83.22
2023-03-21T04:13:11.570Z,83.75
2023-03-21T04:15:38.115Z,83.81
2023-03-21T04:18:04.937Z,82.71
2023-03-21T04:20:36.903Z,82.40
2023-03-21T04:23:05.007Z,82.42
2023-03-21T04:25:42.260Z,82.44
2023-03-21T04:28:14.366Z,82.56
2023-03-21T04:30:43.390Z,82.29
2023-03-21T04:33:15.951Z,82.74
2023-03-21T04:35:42.650Z,82.65
2023-03-21T04:38:09.152Z,83.75
2023-03-21T04:40:35.909Z,83.77
2023-03-21T04:43:02.596Z,84.77
2023-03-21T04:45:29.200Z,85.84
2023-03-21T04:47:57.341Z,85.28
2023-03-21T04:50:23.927Z,84.83
2023-03-21T04:52:50.633Z,84.32
2023-03-21T04:55:17.212Z,84.76
2023-03-21T04:57:43.704Z,84.48
2023-03-21T05:00:10.900Z,82.00
2023-03-21T05:02:38.281Z,80.87
2023-03-21T05:05:05.266Z,80.92
2023-03-21T05:07:32.768Z,80.81
2023-03-21T05:10:01.316Z,80.15
2023-03-21T05:12:28.907Z,79.70
2023-03-21T05:14:55.479Z,79.14
2023-03-21T05:17:24.968Z,78.95
2023-03-21T05:19:52.898Z,78.98
2023-03-21T05:22:19.761Z,78.92
2023-03-21T05:24:50.117Z,78.08
2023-03-21T05:27:34.921Z,78.92
2023-03-21T05:30:11.688Z,78.65
2023-03-21T05:32:38.579Z,78.82
2023-03-21T05:35:05.883Z,78.89
2023-03-21T05:37:32.467Z,79.09
2023-03-21T05:39:59.020Z,78.81
2023-03-21T05:42:26.043Z,79.40
2023-03-21T05:44:52.593Z,79.25
2023-03-21T05:47:19.572Z,79.40
2023-03-21T05:49:47.155Z,79.22
2023-03-21T05:52:13.787Z,79.21
2023-03-21T05:54:40.351Z,79.49
2023-03-21T05:57:07.328Z,79.00
2023-03-21T05:59:34.268Z,79.12
2023-03-21T06:02:00.847Z,78.90
2023-03-21T06:04:27.379Z,80.27
2023-03-21T06:06:54.215Z,78.76
2023-03-21T06:09:22.584Z,79.57
2023-03-21T06:11:52.153Z,78.92
2023-03-21T06:14:18.568Z,78.35
2023-03-21T06:16:45.410Z,78.01
2023-03-21T06:19:12.443Z,77.64
2023-03-21T06:21:39.152Z,78.04
2023-03-21T06:24:06.044Z,78.21
2023-03-21T06:26:32.619Z,76.14
2023-03-21T06:28:59.130Z,77.51
2023-03-21T06:31:26.729Z,76.23
2023-03-21T06:33:53.454Z,76.24
2023-03-21T06:36:20.309Z,77.29
2023-03-21T06:38:47.008Z,76.72
2023-03-21T06:41:13.819Z,76.82
2023-03-21T06:43:40.459Z,77.64
2023-03-21T06:46:07.046Z,76.36
2023-03-21T06:48:33.617Z,76.57
2023-03-21T06:51:00.281Z,76.45
2023-03-21T06:53:30.155Z,76.52
2023-03-21T06:55:57.030Z,76.58
2023-03-21T06:58:24.083Z,75.92
2023-03-21T07:00:50.870Z,75.62
2023-03-21T07:03:17.428Z,75.06
2023-03-21T07:05:43.964Z,75.01
2023-03-21T07:08:12.324Z,74.74
2023-03-21T07:10:40.269Z,73.77
2023-03-21T07:13:07.136Z,74.98
2023-03-21T07:15:34.686Z,74.56
2023-03-21T07:18:01.230Z,73.64
2023-03-21T07:20:27.886Z,73.26
2023-03-21T07:22:54.453Z,73.59
2023-03-21T07:25:20.969Z,74.16
2023-03-21T07:27:47.516Z,73.47
2023-03-21T07:30:15.658Z,74.29
2023-03-21T07:32:42.571Z,75.25
2023-03-21T07:35:12.720Z,76.25
2023-03-21T07:37:40.785Z,75.53
2023-03-21T07:40:13.126Z,75.64
2023-03-21T07:42:41.076Z,75.58
2023-03-21T07:45:09.022Z,75.14
2023-03-21T07:47:35.960Z,74.83
2023-03-21T07:50:04.527Z,73.57
2023-03-21T07:52:31.317Z,74.49
2023-03-21T07:55:00.220Z,73.18
2023-03-21T07:57:26.787Z,73.01
2023-03-21T07:59:53.360Z,72.55
2023-03-21T08:02:20.026Z,71.76
2023-03-21T08:04:46.831Z,70.70
2023-03-21T08:07:14.041Z,70.18
2023-03-21T08:09:41.001Z,70.73
2023-03-21T08:12:10.700Z,69.89
2023-03-21T08:14:37.266Z,68.81
2023-03-21T08:17:04.983Z,69.94
2023-03-21T08:19:31.614Z,67.96
2023-03-21T08:22:02.371Z,68.48
2023-03-21T08:24:30.096Z,68.54
2023-03-21T08:26:57.260Z,68.36
2023-03-21T08:29:25.106Z,68.76
2023-03-21T08:31:51.662Z,67.73
2023-03-21T08:34:19.528Z,68.14
2023-03-21T08:36:47.124Z,67.72
2023-03-21T08:39:13.681Z,68.69
2023-03-21T08:41:40.281Z,68.85
2023-03-21T08:44:07.037Z,70.44
2023-03-21T08:46:33.804Z,68.70
2023-03-21T08:49:00.472Z,68.81
2023-03-21T08:51:27.239Z,68.78
2023-03-21T08:53:53.784Z,68.17
2023-03-21T08:56:20.367Z,66.77
2023-03-21T08:58:47.373Z,66.81
2023-03-21T09:01:15.760Z,65.34
2023-03-21T09:04:03.102Z,64.71
2023-03-21T09:06:30.189Z,65.14
2023-03-21T09:08:56.946Z,64.68
2023-03-21T09:11:23.564Z,64.73
2023-03-21T09:13:50.099Z,65.02
2023-03-21T09:16:16.618Z,65.71
2023-03-21T09:18:48.743Z,64.66
2023-03-21T09:21:17.308Z,64.24
2023-03-21T09:23:50.648Z,64.18
2023-03-21T09:26:17.228Z,64.78
2023-03-21T09:28:43.754Z,65.24
2023-03-21T09:31:12.333Z,63.60
2023-03-21T09:33:42.742Z,64.75
2023-03-21T09:36:18.749Z,63.08
2023-03-21T09:38:46.715Z,62.62
2023-03-21T09:41:16.300Z,62.23
2023-03-21T09:44:05.669Z,62.66
2023-03-21T09:46:50.221Z,62.21
2023-03-21T09:49:31.015Z,64.56
2023-03-21T09:52:05.490Z,65.07
2023-03-21T09:54:43.043Z,64.54
2023-03-21T09:57:15.893Z,64.98
2023-03-21T09:59:42.927Z,64.95
2023-03-21T10:02:32.411Z,62.77
2023-03-21T10:05:00.761Z,62.41
2023-03-21T10:07:31.924Z,62.04
2023-03-21T10:10:01.039Z,61.59
2023-03-21T10:12:30.631Z,60.73
2023-03-21T10:15:00.788Z,61.18
2023-03-21T10:17:36.299Z,61.07
2023-03-21T10:20:24.559Z,60.84
2023-03-21T10:22:54.289Z,61.50
2023-03-21T10:25:48.221Z,64.41
2023-03-21T10:28:49.851Z,62.96
2023-03-21T10:31:25.427Z,59.50
2023-03-21T10:33:54.560Z,58.60
2023-03-21T10:36:25.846Z,58.91
2023-03-21T10:39:02.102Z,59.05
2023-03-21T10:41:28.655Z,61.91
2023-03-21T10:44:12.080Z,59.96
2023-03-21T10:46:38.733Z,59.62
2023-03-21T10:49:08.187Z,58.72
2023-03-21T10:51:37.261Z,56.97
2023-03-21T10:54:08.557Z,57.33
2023-03-21T10:56:38.818Z,58.15
2023-03-21T10:59:08.832Z,57.85
2023-03-21T11:01:40.597Z,59.15
2023-03-21T11:04:14.019Z,58.37
2023-03-21T11:06:42.973Z,58.40
2023-03-21T11:09:15.456Z,59.40
2023-03-21T11:11:54.414Z,61.35
2023-03-21T11:14:28.352Z,58.99
2023-03-21T11:16:54.983Z,63.13
2023-03-21T11:19:33.715Z,62.13
2023-03-21T11:22:07.108Z,60.93
2023-03-21T11:24:35.513Z,55.99
2023-03-21T11:27:07.132Z,56.86
2023-03-21T11:29:36.022Z,59.17
2023-03-21T11:32:13.801Z,58.00
2023-03-21T11:35:01.320Z,58.25
2023-03-21T11:37:39.562Z,60.54
2023-03-21T11:40:23.168Z,58.79
2023-03-21T11:42:59.307Z,55.62
2023-03-21T11:45:31.180Z,55.46
2023-03-21T11:48:00.549Z,56.66
2023-03-21T11:50:37.164Z,57.65
2023-03-21T11:53:03.643Z,57.62
2023-03-21T11:55:41.127Z,55.45
2023-03-21T11:58:31.526Z,58.01
2023-03-21T12:01:20.119Z,55.11
2023-03-21T12:03:54.324Z,55.13
2023-03-21T12:06:41.633Z,59.02
2023-03-21T12:09:17.570Z,59.13
2023-03-21T12:11:56.272Z,56.02
2023-03-21T12:14:27.203Z,56.54
2023-03-21T12:17:15.658Z,55.26
2023-03-21T12:20:12.365Z,56.63
2023-03-21T12:22:52.057Z,54.92
2023-03-21T12:25:54.961Z,57.07
2023-03-21T12:29:07.138Z,56.52
2023-03-21T12:32:01.510Z,60.65
2023-03-21T12:34:49.532Z,60.26
2023-03-21T12:37:34.478Z,58.93
2023-03-21T12:40:17.250Z,58.63
2023-03-21T12:42:43.687Z,60.30
2023-03-21T12:45:21.840Z,57.03
2023-03-21T12:47:56.376Z,55.41
2023-03-21T12:50:29.215Z,57.47
2023-03-21T12:53:04.492Z,57.41
2023-03-21T12:55:33.965Z,58.74
2023-03-21T12:58:10.124Z,53.82
2023-03-21T13:00:40.606Z,52.67
2023-03-21T13:03:33.516Z,55.40
2023-03-21T13:06:06.590Z,53.67
2023-03-21T13:08:46.464Z,56.09
2023-03-21T13:11:17.645Z,57.99
2023-03-21T13:14:05.977Z,57.77
2023-03-21T13:16:38.532Z,59.06
2023-03-21T13:19:17.281Z,59.48
2023-03-21T13:22:19.855Z,58.12
2023-03-21T13:24:48.169Z,59.93
2023-03-21T13:27:33.675Z,61.14
2023-03-21T13:30:02.584Z,59.43
2023-03-21T13:32:35.853Z,59.68
2023-03-21T13:35:27.461Z,58.35
2023-03-21T13:37:59.094Z,57.88
2023-03-21T13:40:27.218Z,59.28
2023-03-21T13:42:59.892Z,56.75
2023-03-21T13:45:45.303Z,58.97
2023-03-21T13:48:46.541Z,55.07
2023-03-21T13:51:37.555Z,55.28
2023-03-21T13:54:07.100Z,54.22
2023-03-21T13:56:49.077Z,54.19
2023-03-21T13:59:37.404Z,54.03
2023-03-21T14:02:32.258Z,55.78
2023-03-21T14:05:06.615Z,57.73
2023-03-21T14:07:42.274Z,54.16
2023-03-21T14:10:23.342Z,55.19
2023-03-21T14:12:50.460Z,55.73
2023-03-21T14:15:23.140Z,55.08
2023-03-21T14:18:28.175Z,53.31
2023-03-21T14:21:05.045Z,55.47
2023-03-21T14:23:31.813Z,53.84
2023-03-21T14:25:58.879Z,53.10
2023-03-21T14:28:29.466Z,54.63
2023-03-21T14:31:00.099Z,53.65
2023-03-21T14:33:29.042Z,53.51
2023-03-21T14:35:59.130Z,54.60
2023-03-21T14:38:32.203Z,53.47
2023-03-21T14:40:59.027Z,54.57
2023-03-21T14:43:27.609Z,54.93
2023-03-21T14:45:56.609Z,53.37
2023-03-21T14:48:33.774Z,53.90
2023-03-21T14:51:08.214Z,55.49
2023-03-21T14:53:41.152Z,57.71
2023-03-21T14:56:17.006Z,57.48
2023-03-21T14:58:47.219Z,58.86
2023-03-21T15:01:17.302Z,58.84
2023-03-21T15:03:50.338Z,56.85
2023-03-21T15:06:17.616Z,58.07
2023-03-21T15:08:58.033Z,57.22
2023-03-21T15:11:38.133Z,57.98
2023-03-21T15:14:14.214Z,59.19
2023-03-21T15:16:41.290Z,60.00
2023-03-21T15:19:14.679Z,61.86
2023-03-21T15:21:49.111Z,62.13
2023-03-21T15:24:21.882Z,62.75
2023-03-21T15:26:49.782Z,61.10
2023-03-21T15:29:18.258Z,61.88
2023-03-21T15:31:48.217Z,62.83
2023-03-21T15:34:21.945Z,62.37
2023-03-21T15:36:54.681Z,62.69
2023-03-21T15:39:23.688Z,64.00
2023-03-21T15:42:26.039Z,62.73
2023-03-21T15:44:55.784Z,62.24
2023-03-21T15:48:03.036Z,61.43
2023-03-21T15:50:40.341Z,61.68
2023-03-21T15:53:17.124Z,62.23
2023-03-21T15:55:51.972Z,62.72
2023-03-21T15:58:36.968Z,62.75
2023-03-21T16:01:12.751Z,60.68
2023-03-21T16:03:45.835Z,59.64
2023-03-21T16:06:15.045Z,58.44
2023-03-21T16:08:47.280Z,58.80
2023-03-21T16:11:22.850Z,57.55
2023-03-21T16:13:50.382Z,59.38
2023-03-21T16:16:18.903Z,61.06
2023-03-21T16:18:45.835Z,60.31
2023-03-21T16:21:14.741Z,61.68
2023-03-21T16:23:42.068Z,61.93
2023-03-21T16:26:17.722Z,62.20
2023-03-21T16:28:45.392Z,64.59
2023-03-21T16:31:14.782Z,64.50
2023-03-21T16:33:41.902Z,65.29
2023-03-21T16:36:17.833Z,65.95
2023-03-21T16:38:49.630Z,65.97
2023-03-21T16:41:16.696Z,66.62
2023-03-21T16:43:44.086Z,67.02
2023-03-21T16:46:16.138Z,65.50
2023-03-21T16:48:44.392Z,67.28
2023-03-21T16:51:19.222Z,67.55
2023-03-21T16:53:49.545Z,66.51
2023-03-21T16:56:20.265Z,66.97
2023-03-21T16:58:47.225Z,66.60
2023-03-21T17:01:19.908Z,66.48
2023-03-21T17:03:48.316Z,66.20
2023-03-21T17:06:17.282Z,67.48
2023-03-21T17:08:44.832Z,66.60
2023-03-21T17:11:16.926Z,67.20
2023-03-21T17:13:44.081Z,67.06
2023-03-21T17:16:15.616Z,67.63
2023-03-21T17:18:43.477Z,68.27
2023-03-21T17:21:16.332Z,67.86
2023-03-21T17:23:44.039Z,68.02
2023-03-21T17:26:13.433Z,68.90
2023-03-21T17:28:41.107Z,67.27
2023-03-21T17:31:19.628Z,67.36
2023-03-21T17:33:46.861Z,68.53
2023-03-21T17:36:15.941Z,69.33
2023-03-21T17:38:45.831Z,68.72
2023-03-21T17:41:14.551Z,67.02
2023-03-21T17:43:41.185Z,68.10
2023-03-21T17:46:11.647Z,69.88
2023-03-21T17:48:38.346Z,68.70
2023-03-21T17:51:05.197Z,68.95
2023-03-21T17:53:31.748Z,69.28
2023-03-21T17:55:58.334Z,69.33
2023-03-21T17:58:26.204Z,69.69
2023-03-21T18:00:52.802Z,69.95
2023-03-21T18:03:19.776Z,69.59
2023-03-21T18:05:46.355Z,70.18
2023-03-21T18:08:13.193Z,71.73
2023-03-21T18:10:40.961Z,71.62
2023-03-21T18:13:07.894Z,71.64
2023-03-21T18:15:35.994Z,71.97
2023-03-21T18:18:04.660Z,70.29
2023-03-21T18:23:19.172Z,70.71
2023-03-21T18:25:45.871Z,70.71
2023-03-21T18:28:13.220Z,71.00
2023-03-21T18:31:05.418Z,71.23
2023-03-21T18:33:27.553Z,71.08
2023-03-21T18:35:59.100Z,71.57
2023-03-21T18:38:29.040Z,71.33
2023-03-21T18:40:56.312Z,72.51
2023-03-21T18:46:10.200Z,72.54
2023-03-21T18:48:36.911Z,72.40
2023-03-21T18:51:04.024Z,72.84
2023-03-21T18:53:30.839Z,73.16
2023-03-21T18:55:57.797Z,73.27
2023-03-21T18:58:25.186Z,73.97
2023-03-21T19:00:53.546Z,74.12
2023-03-21T19:03:32.886Z,74.57
2023-03-21T19:06:06.468Z,75.57
2023-03-21T19:08:36.972Z,75.62
2023-03-21T19:11:06.750Z,76.61
2023-03-21T19:13:34.874Z,77.28
2023-03-21T19:16:02.857Z,77.32
2023-03-21T19:18:53.056Z,76.73
2023-03-21T19:21:18.289Z,76.99
2023-03-21T19:24:20.912Z,77.12
2023-03-21T19:26:31.422Z,77.62
2023-03-21T19:28:57.992Z,77.16
2023-03-21T19:31:24.775Z,78.19
2023-03-21T19:33:51.565Z,77.27
2023-03-21T19:36:22.531Z,76.36
2023-03-21T19:38:50.991Z,76.11
2023-03-21T19:41:19.093Z,76.39
2023-03-21T19:43:54.125Z,77.01
2023-03-21T19:46:24.847Z,78.00
2023-03-21T19:48:56.325Z,78.05
2023-03-21T19:51:29.077Z,77.84
2023-03-21T19:53:56.259Z,77.29
2023-03-21T19:56:26.441Z,77.44
2023-03-21T19:58:54.435Z,77.47
2023-03-21T20:01:21.841Z,76.72
2023-03-21T20:03:48.503Z,76.55
2023-03-21T20:06:16.288Z,76.94
2023-03-21T20:09:13.709Z,75.36
2023-03-21T20:11:29.449Z,74.76
2023-03-21T20:13:56.340Z,74.77
2023-03-21T20:16:23.102Z,74.42
2023-03-21T20:18:49.803Z,74.27
2023-03-21T20:21:18.436Z,73.84
2023-03-21T20:23:50.925Z,73.37
2023-03-21T20:26:18.412Z,72.79
2023-03-21T20:29:00.194Z,72.06
2023-03-21T20:31:37.680Z,70.39
2023-03-21T20:34:04.226Z,69.94
2023-03-21T20:36:40.210Z,69.60
2023-03-21T20:39:07.553Z,69.54
2023-03-21T20:41:34.158Z,70.65
2023-03-21T20:46:47.865Z,70.43
2023-03-21T20:49:15.354Z,71.16
2023-03-21T20:54:29.884Z,71.52
2023-03-21T20:56:57.291Z,71.61
2023-03-21T20:59:27.729Z,71.52
2023-03-21T21:01:58.019Z,72.12
2023-03-21T21:04:46.692Z,71.62
2023-03-21T21:07:17.572Z,72.16
2023-03-21T21:09:45.447Z,72.01
2023-03-21T21:12:14.977Z,72.63
2023-03-21T21:14:42.667Z,72.50
2023-03-21T21:17:54.224Z,72.77
2023-03-21T21:19:56.580Z,72.20
2023-03-21T21:22:23.153Z,71.91
2023-03-21T21:24:49.657Z,71.73
2023-03-21T21:27:16.250Z,70.74
2023-03-21T21:29:43.408Z,70.78
2023-03-21T21:32:11.164Z,71.23
2023-03-21T21:34:38.045Z,70.23
2023-03-21T21:37:05.101Z,69.98
2023-03-21T21:39:37.770Z,69.75
2023-03-21T21:42:05.303Z,68.89
2023-03-21T21:44:31.973Z,70.31
2023-03-21T21:46:58.630Z,69.87
2023-03-21T21:49:25.347Z,70.28
2023-03-21T21:51:51.894Z,67.85
2023-03-21T21:54:18.678Z,67.88
2023-03-21T21:56:48.352Z,68.68
2023-03-21T21:59:22.043Z,68.65
2023-03-21T22:01:51.267Z,68.79
2023-03-21T22:04:18.659Z,69.03
2023-03-21T22:06:47.552Z,69.56
2023-03-21T22:09:15.804Z,70.08
2023-03-21T22:11:42.531Z,69.67
2023-03-21T22:14:09.104Z,71.18
2023-03-21T22:16:35.884Z,71.89
2023-03-21T22:19:02.436Z,73.75
2023-03-21T22:21:28.998Z,75.00
2023-03-21T22:24:04.777Z,74.08
2023-03-21T22:26:31.471Z,74.31
2023-03-21T22:28:59.896Z,75.07
2023-03-21T22:31:26.559Z,75.73
2023-03-21T22:33:53.144Z,75.89
2023-03-21T22:36:20.247Z,76.65
2023-03-21T22:38:47.845Z,76.55
2023-03-21T22:41:14.637Z,76.60
2023-03-21T22:43:41.280Z,78.61
2023-03-21T22:46:08.055Z,79.53
2023-03-21T22:48:34.855Z,80.06
2023-03-21T22:51:01.441Z,79.49
2023-03-21T22:53:28.942Z,80.59
2023-03-21T22:55:56.011Z,80.46
2023-03-21T22:58:23.002Z,80.98
2023-03-21T23:00:49.560Z,81.32
2023-03-21T23:03:16.930Z,82.94
2023-03-21T23:05:44.664Z,81.41
2023-03-21T23:08:12.214Z,79.91
2023-03-21T23:10:41.275Z,81.25
2023-03-21T23:13:07.953Z,81.16
2023-03-21T23:15:34.551Z,81.96
2023-03-21T23:18:01.107Z,81.97
2023-03-21T23:20:27.928Z,82.49
2023-03-21T23:22:54.921Z,84.81
2023-03-21T23:25:21.650Z,84.48
2023-03-21T23:27:48.308Z,84.39
2023-03-21T23:30:15.122Z,84.86
2023-03-21T23:32:43.003Z,86.31
2023-03-21T23:35:09.890Z,85.46
2023-03-21T23:37:36.447Z,86.77
2023-03-21T23:40:06.357Z,87.08
2023-03-21T23:42:34.204Z,87.68
2023-03-21T23:45:01.063Z,87.39
2023-03-21T23:47:27.858Z,88.12
2023-03-21T23:49:54.486Z,87.42
2023-03-21T23:52:21.386Z,87.06
2023-03-21T23:54:48.068Z,85.64
2023-03-21T23:57:14.715Z,85.62
2023-03-21T23:59:41.268Z,86.87
